Time;durP1;ratioP1;P1;durP2;ratioP2;P2;SDS_P1;SDS_P2;PMS_P1;PMS_P2;Temp;Humidity;BMP_temperature;BMP_pressure;BME280_temperature;BME280_humidity;BME280_pressure;Samples;Min_cycle;Max_cycle;Signal;HPM_P1;HPM_P2
2022/09/15 00:09:25;;;;;;;0.20;0.00;;;24.00;99.90;;;;;;26054439;22;20291;-69
2022/09/15 00:19:30;;;;;;;0.20;0.00;;;24.20;99.90;;;;;;26055193;22;20171;-69
2022/09/15 00:29:35;;;;;;;0.20;0.00;;;23.90;99.90;;;;;;26054074;22;20239;-68
2022/09/15 00:39:40;;;;;;;0.20;0.00;;;24.00;99.90;;;;;;26055569;22;20224;-69
2022/09/15 00:49:46;;;;;;;0.20;0.00;;;23.70;99.90;;;;;;26053198;22;20251;-69
2022/09/15 00:59:53;;;;;;;0.20;0.00;;;23.40;99.90;;;;;;26053178;22;20239;-69
2022/09/15 01:10:00;;;;;;;0.20;0.00;;;23.30;99.90;;;;;;26021884;22;20192;-67
2022/09/15 01:20:33;;;;;;;0.20;0.00;;;23.10;99.90;;;;;;26046427;22;20168;-69
2022/09/15 01:30:40;;;;;;;0.20;0.10;;;23.20;99.90;;;;;;26046772;22;20205;-67
2022/09/15 01:40:51;;;;;;;0.20;0.00;;;23.50;99.90;;;;;;26047942;22;20148;-68
2022/09/15 01:51:00;;;;;;;0.20;0.00;;;23.50;99.90;;;;;;26045823;22;20198;-68
2022/09/15 02:01:08;;;;;;;0.20;0.00;;;23.30;99.90;;;;;;26045472;22;20175;-68
2022/09/15 02:11:16;;;;;;;0.20;0.00;;;23.30;99.90;;;;;;26017234;22;20207;-69
2022/09/15 02:21:26;;;;;;;0.20;0.00;;;23.60;99.90;;;;;;26017733;22;20224;-69
2022/09/15 02:31:33;;;;;;;0.20;0.00;;;23.20;99.90;;;;;;26044047;22;20235;-69
2022/09/15 02:41:39;;;;;;;0.20;0.00;;;23.40;99.90;;;;;;26042731;22;20156;-69
2022/09/15 02:51:44;;;;;;;0.20;0.00;;;23.20;99.90;;;;;;25993695;22;20215;-69
2022/09/15 03:01:47;;;;;;;0.20;0.00;;;22.80;99.90;;;;;;26043171;22;20187;-69
2022/09/15 03:11:53;;;;;;;0.20;0.00;;;22.20;99.90;;;;;;26041941;22;20299;-68
2022/09/15 03:21:57;;;;;;;0.20;0.00;;;21.70;99.90;;;;;;26040154;22;20148;-68
2022/09/15 03:32:02;;;;;;;0.20;0.00;;;21.60;99.90;;;;;;26018037;22;20188;-68
2022/09/15 03:42:06;;;;;;;0.20;0.00;;;21.70;99.90;;;;;;26040603;22;20160;-69
2022/09/15 03:52:11;;;;;;;0.20;0.00;;;22.00;99.90;;;;;;26041685;22;20236;-68
2022/09/15 04:02:15;;;;;;;0.20;0.10;;;22.30;99.90;;;;;;26012690;22;20219;-69
2022/09/15 04:12:20;;;;;;;0.20;0.00;;;22.00;99.90;;;;;;26039653;22;20200;-69
2022/09/15 04:22:24;;;;;;;0.20;0.00;;;21.80;99.90;;;;;;26013332;22;20198;-68
2022/09/15 04:32:29;;;;;;;0.20;0.00;;;21.80;99.90;;;;;;26041179;22;20246;-68
2022/09/15 04:42:33;;;;;;;0.20;0.00;;;21.50;99.90;;;;;;26046906;22;20208;-69
2022/09/15 04:52:38;;;;;;;0.20;0.00;;;21.60;99.90;;;;;;26047524;22;20259;-68
2022/09/15 05:02:42;;;;;;;0.20;0.00;;;21.70;99.90;;;;;;26016505;22;20214;-68
2022/09/15 05:12:47;;;;;;;0.20;0.00;;;21.70;99.90;;;;;;26044506;22;20270;-68
2022/09/15 05:22:51;;;;;;;0.20;0.00;;;21.50;99.90;;;;;;26045770;22;20223;-69
2022/09/15 05:32:56;;;;;;;0.20;0.00;;;21.40;99.90;;;;;;26017303;22;20224;-69
2022/09/15 05:43:00;;;;;;;0.20;0.00;;;21.30;99.90;;;;;;26041262;22;20214;-69
2022/09/15 05:53:06;;;;;;;0.20;0.00;;;21.50;99.90;;;;;;26035654;22;20216;-69
2022/09/15 06:03:15;;;;;;;0.20;0.00;;;21.70;99.90;;;;;;26031475;22;20256;-70
2022/09/15 06:13:21;;;;;;;0.20;0.00;;;22.10;99.90;;;;;;26040520;22;20195;-69
2022/09/15 06:23:25;;;;;;;0.20;0.00;;;22.10;99.90;;;;;;26039442;22;20180;-69
2022/09/15 06:33:30;;;;;;;0.20;0.00;;;22.50;99.90;;;;;;26040840;22;20180;-68
2022/09/15 06:43:35;;;;;;;0.20;0.00;;;22.90;99.90;;;;;;26039110;22;20231;-70
2022/09/15 06:53:40;;;;;;;0.20;0.00;;;23.50;99.90;;;;;;26039157;22;20192;-70
2022/09/15 07:03:44;;;;;;;0.20;0.10;;;24.00;99.90;;;;;;26011674;22;20206;-68
2022/09/15 07:13:50;;;;;;;0.20;0.10;;;24.60;99.90;;;;;;26010188;22;20188;-70
2022/09/15 07:23:57;;;;;;;0.20;0.00;;;25.40;99.90;;;;;;26008937;22;20249;-71
2022/09/15 07:34:07;;;;;;;0.20;0.00;;;25.90;99.90;;;;;;26037810;22;20159;-70
2022/09/15 07:44:12;;;;;;;0.20;0.00;;;26.20;99.90;;;;;;26036978;22;20203;-69
2022/09/15 07:54:17;;;;;;;0.20;0.00;;;26.40;99.90;;;;;;26035309;22;20765;-70
2022/09/15 08:04:25;;;;;;;0.20;0.00;;;26.70;99.90;;;;;;26037663;22;20200;-70
2022/09/15 08:14:31;;;;;;;0.20;0.00;;;26.80;99.90;;;;;;26017021;22;20171;-69
2022/09/15 08:24:36;;;;;;;0.20;0.00;;;26.80;99.90;;;;;;26045837;22;20196;-69
2022/09/15 08:34:41;;;;;;;0.20;0.00;;;26.90;99.90;;;;;;26043366;22;20307;-69
2022/09/15 08:44:49;;;;;;;0.20;0.00;;;26.90;99.90;;;;;;26044062;22;20207;-69
2022/09/15 08:54:58;;;;;;;0.20;0.00;;;27.10;99.90;;;;;;26016193;22;20208;-69
2022/09/15 09:05:13;;;;;;;0.20;0.00;;;27.10;99.90;;;;;;26013797;22;20223;-69
2022/09/15 09:15:33;;;;;;;0.20;0.10;;;27.10;99.90;;;;;;26039453;22;20176;-64
2022/09/15 09:25:37;;;;;;;0.20;0.05;;;27.10;99.90;;;;;;26040443;22;20213;-70
2022/09/15 09:35:44;;;;;;;0.20;0.00;;;27.20;99.90;;;;;;26015586;22;20228;-69
2022/09/15 09:45:49;;;;;;;0.20;0.00;;;27.60;99.90;;;;;;26013150;22;20262;-69
2022/09/15 09:55:55;;;;;;;0.20;0.00;;;27.60;99.90;;;;;;26040796;22;20234;-69
2022/09/15 10:06:05;;;;;;;0.20;0.00;;;28.10;99.90;;;;;;26013589;22;20207;-70
2022/09/15 10:16:10;;;;;;;0.20;0.00;;;28.10;99.90;;;;;;26040912;22;20160;-71
2022/09/15 10:26:23;;;;;;;0.20;0.00;;;28.40;99.90;;;;;;26040708;22;20195;-69
2022/09/15 10:36:31;;;;;;;0.20;0.00;;;28.80;99.90;;;;;;26012205;22;20176;-68
2022/09/15 10:46:46;;;;;;;0.20;0.00;;;29.10;99.90;;;;;;26014119;22;20211;-70
2022/09/15 10:56:57;;;;;;;0.20;0.00;;;29.90;99.90;;;;;;25909590;23;20251;-69
2022/09/15 11:07:08;;;;;;;0.20;0.00;;;30.70;99.90;;;;;;25888716;23;20216;-66
2022/09/15 11:17:34;;;;;;;0.20;0.00;;;30.50;99.90;;;;;;25907171;23;20220;-69
2022/09/15 11:27:42;;;;;;;0.20;0.00;;;31.50;99.90;;;;;;25910786;23;20263;-69
2022/09/15 11:37:51;;;;;;;0.20;0.00;;;31.80;99.90;;;;;;25908703;23;20248;-69
2022/09/15 11:47:59;;;;;;;0.20;0.00;;;32.10;99.90;;;;;;25909578;23;20197;-69
2022/09/15 11:58:17;;;;;;;0.20;0.00;;;32.10;99.90;;;;;;25911542;23;20163;-69
2022/09/15 12:08:33;;;;;;;0.20;0.00;;;33.10;99.90;;;;;;25911686;23;20204;-69
2022/09/15 12:18:44;;;;;;;0.20;0.00;;;33.20;99.90;;;;;;25907473;23;20207;-70
2022/09/15 12:28:57;;;;;;;0.20;0.00;;;33.70;99.90;;;;;;25900005;23;20259;-70
2022/09/15 12:39:28;;;;;;;0.20;0.00;;;33.50;99.90;;;;;;25897894;23;20204;-71
2022/09/15 12:49:35;;;;;;;0.20;0.00;;;33.80;99.90;;;;;;25924132;22;20275;-71
2022/09/15 12:59:40;;;;;;;0.20;0.00;;;33.70;99.90;;;;;;26038369;22;20241;-70
2022/09/15 13:09:55;;;;;;;0.20;0.00;;;33.60;99.90;;;;;;26015563;22;21119;-68
2022/09/15 13:20:08;;;;;;;0.20;0.00;;;33.90;99.90;;;;;;26012884;22;20171;-69
2022/09/15 13:30:31;;;;;;;0.20;0.00;;;34.20;99.90;;;;;;26013238;22;20226;-69
2022/09/15 13:41:06;;;;;;;0.20;0.00;;;34.10;99.90;;;;;;26010424;22;20164;-68
2022/09/15 13:51:17;;;;;;;0.20;0.00;;;34.70;99.90;;;;;;26037433;22;21208;-67
2022/09/15 14:01:24;;;;;;;0.20;0.00;;;34.90;99.90;;;;;;26010872;22;20183;-69
2022/09/15 14:11:30;;;;;;;0.20;0.00;;;35.40;99.90;;;;;;26036728;22;20199;-69
2022/09/15 14:21:47;;;;;;;0.20;0.00;;;34.90;99.90;;;;;;26010363;22;20184;-69
2022/09/15 14:31:51;;;;;;;0.20;0.00;;;34.90;99.90;;;;;;26035305;22;20203;-70
2022/09/15 14:41:57;;;;;;;0.20;0.00;;;35.50;99.90;;;;;;26007873;22;20252;-70
2022/09/15 14:52:02;;;;;;;0.20;0.00;;;35.30;99.90;;;;;;26034890;22;20204;-70
2022/09/15 15:02:20;;;;;;;0.20;0.00;;;35.20;99.90;;;;;;26032206;22;20167;-69
2022/09/15 15:12:27;;;;;;;0.20;0.00;;;34.40;99.90;;;;;;26029994;22;20289;-69
2022/09/15 15:22:32;;;;;;;0.20;0.00;;;34.80;99.90;;;;;;26029215;22;20212;-69
2022/09/15 15:32:36;;;;;;;0.20;0.00;;;34.90;99.90;;;;;;26030201;22;20195;-69
2022/09/15 15:42:51;;;;;;;0.20;0.00;;;34.30;99.90;;;;;;26002519;22;20206;-69
2022/09/15 15:53:01;;;;;;;0.20;0.00;;;32.50;99.90;;;;;;26003802;22;20199;-69
2022/09/15 16:03:07;;;;;;;0.20;0.00;;;30.80;99.90;;;;;;26004426;22;20201;-70
2022/09/15 16:13:14;;;;;;;0.20;0.00;;;30.20;99.90;;;;;;26009301;22;20251;-71
2022/09/15 16:23:22;;;;;;;0.20;0.00;;;29.80;99.90;;;;;;26009229;22;20192;-69
2022/09/15 16:33:26;;;;;;;0.20;0.00;;;29.60;99.90;;;;;;26012625;22;20192;-70
2022/09/15 16:43:31;;;;;;;0.20;0.10;;;29.20;99.90;;;;;;26043585;22;20169;-70
2022/09/15 16:53:35;;;;;;;0.20;0.00;;;29.20;99.90;;;;;;26039729;22;20271;-70
2022/09/15 17:03:42;;;;;;;0.20;0.00;;;29.00;99.90;;;;;;26041442;22;20160;-70
2022/09/15 17:13:46;;;;;;;0.20;0.10;;;28.60;99.90;;;;;;26040928;22;20188;-70
2022/09/15 17:23:51;;;;;;;0.20;0.00;;;28.30;99.90;;;;;;25988050;22;20226;-70
2022/09/15 17:33:55;;;;;;;0.20;0.00;;;28.00;99.90;;;;;;26038940;22;20183;-73
2022/09/15 17:44:00;;;;;;;0.20;0.00;;;27.80;99.90;;;;;;26037862;22;20156;-69
2022/09/15 17:54:05;;;;;;;0.20;0.00;;;27.70;99.90;;;;;;26040184;22;20219;-68
2022/09/15 18:04:11;;;;;;;0.20;0.00;;;27.50;99.90;;;;;;26037182;22;20224;-70
2022/09/15 18:14:15;;;;;;;0.20;0.10;;;27.50;99.90;;;;;;26041678;22;20199;-70
2022/09/15 18:24:20;;;;;;;0.20;0.00;;;27.20;99.90;;;;;;26036352;22;20157;-69
2022/09/15 18:34:24;;;;;;;0.20;0.10;;;27.20;99.90;;;;;;26040436;22;20180;-69
2022/09/15 18:44:29;;;;;;;0.20;0.00;;;27.10;99.90;;;;;;26037595;22;20184;-69
2022/09/15 18:54:33;;;;;;;0.20;0.10;;;27.10;99.90;;;;;;26036736;22;20222;-69
2022/09/15 19:04:38;;;;;;;0.20;0.10;;;27.00;99.90;;;;;;26035212;22;20295;-70
2022/09/15 19:14:43;;;;;;;0.20;0.10;;;27.10;99.90;;;;;;26006408;22;20183;-69
2022/09/15 19:24:50;;;;;;;0.20;0.00;;;27.00;99.90;;;;;;26033541;22;20794;-70
2022/09/15 19:34:54;;;;;;;0.20;0.00;;;27.00;99.90;;;;;;26006288;22;20176;-69
2022/09/15 19:44:59;;;;;;;0.20;0.00;;;27.00;99.90;;;;;;26002519;22;20172;-70
2022/09/15 19:55:05;;;;;;;0.20;0.00;;;26.90;99.90;;;;;;26033463;22;20263;-69
2022/09/15 20:05:11;;;;;;;0.20;0.00;;;26.90;99.90;;;;;;26011452;22;20207;-70
2022/09/15 20:15:14;;;;;;;0.20;0.00;;;27.00;99.90;;;;;;26044150;22;20179;-70
2022/09/15 20:25:22;;;;;;;0.20;0.00;;;27.10;99.90;;;;;;26042430;22;20171;-70
2022/09/15 20:35:26;;;;;;;0.20;0.00;;;26.80;99.90;;;;;;26014550;22;20192;-71
2022/09/15 20:45:32;;;;;;;0.20;0.00;;;26.80;99.90;;;;;;26040550;22;20173;-70
2022/09/15 20:55:39;;;;;;;0.20;0.10;;;26.60;99.90;;;;;;26044670;22;20192;-69
2022/09/15 21:05:44;;;;;;;0.20;0.00;;;26.30;99.90;;;;;;26042850;22;20203;-67
2022/09/15 21:15:53;;;;;;;0.20;0.00;;;26.20;99.90;;;;;;26044806;22;20214;-69
2022/09/15 21:25:59;;;;;;;0.20;0.00;;;26.10;99.90;;;;;;26012917;22;20164;-70
2022/09/15 21:36:06;;;;;;;0.20;0.00;;;26.00;99.90;;;;;;26015742;22;20164;-70
2022/09/15 21:46:14;;;;;;;0.20;0.00;;;25.90;99.90;;;;;;26041995;22;20263;-70
2022/09/15 21:56:18;;;;;;;0.20;0.00;;;25.30;99.90;;;;;;26041048;22;20301;-69
2022/09/15 22:06:28;;;;;;;0.20;0.00;;;25.00;99.90;;;;;;26040775;22;20188;-70
2022/09/15 22:16:33;;;;;;;0.20;0.00;;;24.80;99.90;;;;;;26040198;22;20190;-70
2022/09/15 22:26:40;;;;;;;0.20;0.00;;;24.50;99.90;;;;;;26014811;22;20195;-70
2022/09/15 22:36:44;;;;;;;0.20;0.10;;;24.40;99.90;;;;;;26041996;22;20160;-71
2022/09/15 22:46:50;;;;;;;0.20;0.00;;;24.40;99.90;;;;;;26040678;22;20263;-71
2022/09/15 22:56:53;;;;;;;0.20;0.00;;;24.00;99.90;;;;;;26039249;22;20235;-70
2022/09/15 23:06:58;;;;;;;0.20;0.00;;;23.90;99.90;;;;;;26038677;22;20275;-70
2022/09/15 23:17:02;;;;;;;0.20;0.00;;;23.90;99.90;;;;;;26013850;22;20180;-70
2022/09/15 23:27:07;;;;;;;0.20;0.00;;;23.70;99.90;;;;;;26038308;22;20239;-69
2022/09/15 23:37:11;;;;;;;0.20;0.00;;;23.70;99.90;;;;;;26013902;22;20171;-70
2022/09/15 23:47:16;;;;;;;0.20;0.00;;;23.60;99.90;;;;;;26034113;22;20187;-69
2022/09/15 23:57:20;;;;;;;0.20;0.00;;;23.40;99.90;;;;;;26038885;22;20204;-69
